createdAt,value
2023-05-14T00:00:39.802Z,13.79
2023-05-14T00:03:08.355Z,13.81
2023-05-14T00:05:37.012Z,13.81
2023-05-14T00:08:05.771Z,13.83
2023-05-14T00:10:34.274Z,13.86
2023-05-14T00:13:02.818Z,13.85
2023-05-14T00:15:34.173Z,13.86
2023-05-14T00:18:02.713Z,13.86
2023-05-14T00:20:32.137Z,13.88
2023-05-14T00:23:00.609Z,13.91
2023-05-14T00:25:29.630Z,13.91
2023-05-14T00:27:57.693Z,13.91
2023-05-14T00:30:26.030Z,13.91
2023-05-14T00:32:55.794Z,13.90
2023-05-14T00:35:24.255Z,13.91
2023-05-14T00:37:52.368Z,13.92
2023-05-14T00:40:21.568Z,13.90
2023-05-14T00:42:49.919Z,13.90
2023-05-14T00:45:18.057Z,13.90
2023-05-14T00:47:46.325Z,13.90
2023-05-14T00:50:17.449Z,13.91
2023-05-14T00:52:45.982Z,13.90
2023-05-14T00:55:17.810Z,13.88
2023-05-14T00:57:46.241Z,13.87
2023-05-14T01:00:15.235Z,13.87
2023-05-14T01:02:43.683Z,13.86
2023-05-14T01:05:12.066Z,13.86
2023-05-14T01:07:50.625Z,13.84
2023-05-14T01:10:25.331Z,13.85
2023-05-14T01:13:10.468Z,13.84
2023-05-14T01:15:41.449Z,13.84
2023-05-14T01:18:12.778Z,13.85
2023-05-14T01:20:41.155Z,13.83
2023-05-14T01:23:11.071Z,13.84
2023-05-14T01:25:39.309Z,13.82
2023-05-14T01:28:14.434Z,13.81
2023-05-14T01:30:47.562Z,13.81
2023-05-14T01:33:19.349Z,13.80
2023-05-14T01:35:48.071Z,13.81
2023-05-14T01:38:20.396Z,13.80
2023-05-14T01:40:50.334Z,13.80
2023-05-14T01:43:18.814Z,13.79
2023-05-14T01:45:47.311Z,13.78
2023-05-14T01:48:16.222Z,13.78
2023-05-14T01:50:44.484Z,13.77
2023-05-14T01:53:12.714Z,13.76
2023-05-14T01:55:42.362Z,13.74
2023-05-14T01:58:10.714Z,13.74
2023-05-14T02:00:39.008Z,13.72
2023-05-14T02:03:07.250Z,13.72
2023-05-14T02:05:35.474Z,13.69
2023-05-14T02:08:03.714Z,13.68
2023-05-14T02:10:32.327Z,13.67
2023-05-14T02:13:01.956Z,13.66
2023-05-14T02:15:30.193Z,13.64
2023-05-14T02:17:58.519Z,13.63
2023-05-14T02:20:27.329Z,13.60
2023-05-14T02:22:55.542Z,13.57
2023-05-14T02:25:23.843Z,13.58
2023-05-14T02:27:52.125Z,13.56
2023-05-14T02:30:23.141Z,13.55
2023-05-14T02:32:51.637Z,13.52
2023-05-14T02:35:20.092Z,13.52
2023-05-14T02:37:48.205Z,13.50
2023-05-14T02:40:16.565Z,13.49
2023-05-14T02:42:45.065Z,13.47
2023-05-14T02:45:13.264Z,13.46
2023-05-14T02:47:43.862Z,13.44
2023-05-14T02:50:12.438Z,13.45
2023-05-14T02:52:40.589Z,13.45
2023-05-14T02:55:10.183Z,13.43
2023-05-14T02:57:38.361Z,13.42
2023-05-14T03:00:09.444Z,13.41
2023-05-14T03:02:38.133Z,13.42
2023-05-14T03:05:09.467Z,13.40
2023-05-14T03:07:37.718Z,13.38
2023-05-14T03:10:06.976Z,13.36
2023-05-14T03:12:35.437Z,13.35
2023-05-14T03:15:03.700Z,13.33
2023-05-14T03:17:31.879Z,13.34
2023-05-14T03:20:00.054Z,13.33
2023-05-14T03:22:29.829Z,13.31
2023-05-14T03:24:58.061Z,13.28
2023-05-14T03:27:27.037Z,13.25
2023-05-14T03:29:55.249Z,13.22
2023-05-14T03:32:23.453Z,13.21
2023-05-14T03:34:51.790Z,13.20
2023-05-14T03:37:20.050Z,13.17
2023-05-14T03:39:49.620Z,13.16
2023-05-14T03:42:17.797Z,13.14
2023-05-14T03:44:46.447Z,13.14
2023-05-14T03:47:14.701Z,13.16
2023-05-14T03:49:42.881Z,13.15
2023-05-14T03:52:10.989Z,13.15
2023-05-14T03:54:41.362Z,13.13
2023-05-14T03:57:10.951Z,13.15
2023-05-14T03:59:39.211Z,13.14
2023-05-14T04:02:07.414Z,13.15
2023-05-14T04:04:35.713Z,13.15
2023-05-14T04:07:03.965Z,13.17
2023-05-14T04:09:32.222Z,13.17
2023-05-14T04:12:00.448Z,13.19
2023-05-14T04:14:30.028Z,13.20
2023-05-14T04:17:00.115Z,13.22
2023-05-14T04:19:28.464Z,13.23
2023-05-14T04:21:56.685Z,13.22
2023-05-14T04:24:24.832Z,13.23
2023-05-14T04:26:53.064Z,13.24
2023-05-14T04:29:21.238Z,13.26
2023-05-14T04:31:51.553Z,13.26
2023-05-14T04:34:19.831Z,13.28
2023-05-14T04:36:48.030Z,13.30
2023-05-14T04:39:16.862Z,13.32
2023-05-14T04:41:45.015Z,13.33
2023-05-14T04:44:14.245Z,13.32
2023-05-14T04:46:42.492Z,13.36
2023-05-14T04:49:12.281Z,13.39
2023-05-14T04:51:40.685Z,13.40
2023-05-14T04:54:08.908Z,13.42
2023-05-14T04:56:37.094Z,13.44
2023-05-14T04:59:05.498Z,13.46
2023-05-14T05:01:33.723Z,13.48
2023-05-14T05:04:02.422Z,13.50
2023-05-14T05:06:32.483Z,13.50
2023-05-14T05:09:02.095Z,13.51
2023-05-14T05:11:30.693Z,13.52
2023-05-14T05:13:58.906Z,13.47
2023-05-14T05:16:27.220Z,13.48
2023-05-14T05:18:55.613Z,13.46
2023-05-14T05:21:23.802Z,13.48
2023-05-14T05:23:53.459Z,13.52
2023-05-14T05:26:22.356Z,13.53
2023-05-14T05:28:50.547Z,13.56
2023-05-14T05:31:19.986Z,13.55
2023-05-14T05:33:48.468Z,13.57
2023-05-14T05:36:16.692Z,13.58
2023-05-14T05:38:45.187Z,13.59
2023-05-14T05:41:14.727Z,13.60
2023-05-14T05:43:42.917Z,13.61
2023-05-14T05:46:11.117Z,13.62
2023-05-14T05:48:39.299Z,13.62
2023-05-14T05:51:07.634Z,13.65
2023-05-14T05:53:35.897Z,13.67
2023-05-14T05:56:04.020Z,13.69
2023-05-14T05:58:33.601Z,13.71
2023-05-14T06:01:01.790Z,13.73
2023-05-14T06:03:30.080Z,13.74
2023-05-14T06:05:58.364Z,13.73
2023-05-14T06:08:26.712Z,13.75
2023-05-14T06:10:54.880Z,13.78
2023-05-14T06:13:22.996Z,13.79
2023-05-14T06:15:52.685Z,13.80
2023-05-14T06:18:21.056Z,13.82
2023-05-14T06:20:49.172Z,13.81
2023-05-14T06:23:17.426Z,13.83
2023-05-14T06:25:45.723Z,13.84
2023-05-14T06:28:13.881Z,13.87
2023-05-14T06:30:42.102Z,13.87
2023-05-14T06:33:13.349Z,13.87
2023-05-14T06:35:41.587Z,13.89
2023-05-14T06:38:09.714Z,13.89
2023-05-14T06:40:37.923Z,13.91
2023-05-14T06:43:06.851Z,13.93
2023-05-14T06:45:35.193Z,13.94
2023-05-14T06:48:03.466Z,13.96
2023-05-14T06:50:33.124Z,13.98
2023-05-14T06:53:01.346Z,14.02
2023-05-14T06:55:29.750Z,14.07
2023-05-14T06:57:57.943Z,14.11
2023-05-14T07:00:26.606Z,14.16
2023-05-14T07:02:55.038Z,14.20
2023-05-14T07:05:23.253Z,14.24
2023-05-14T07:07:52.919Z,14.27
2023-05-14T07:10:21.324Z,14.33
2023-05-14T07:12:50.621Z,14.32
2023-05-14T07:15:19.049Z,14.35
2023-05-14T07:17:47.331Z,14.38
2023-05-14T07:20:15.636Z,14.39
2023-05-14T07:22:43.844Z,14.39
2023-05-14T07:25:13.658Z,14.45
2023-05-14T07:27:41.853Z,14.47
2023-05-14T07:30:10.648Z,14.46
2023-05-14T07:32:38.864Z,14.45
2023-05-14T07:35:08.272Z,14.49
2023-05-14T07:37:36.601Z,14.51
2023-05-14T07:40:05.536Z,14.54
2023-05-14T07:42:37.079Z,14.57
2023-05-14T07:45:06.162Z,14.55
2023-05-14T07:47:34.617Z,14.53
2023-05-14T07:50:03.636Z,14.55
2023-05-14T07:52:32.454Z,14.55
2023-05-14T07:55:01.449Z,14.59
2023-05-14T07:57:29.699Z,14.66
2023-05-14T07:59:59.536Z,14.72
2023-05-14T08:02:28.399Z,14.82
2023-05-14T08:04:56.734Z,14.85
2023-05-14T08:07:24.988Z,14.99
2023-05-14T08:09:53.220Z,15.09
2023-05-14T08:12:21.739Z,15.18
2023-05-14T08:14:50.304Z,15.21
2023-05-14T08:17:19.895Z,15.24
2023-05-14T08:19:48.108Z,15.23
2023-05-14T08:22:16.448Z,15.22
2023-05-14T08:24:44.591Z,15.24
2023-05-14T08:27:12.788Z,15.27
2023-05-14T08:29:41.629Z,15.32
2023-05-14T08:32:22.081Z,15.31
2023-05-14T08:34:52.702Z,15.38
2023-05-14T08:37:20.875Z,15.32
2023-05-14T08:39:49.044Z,15.33
2023-05-14T08:42:21.570Z,15.31
2023-05-14T08:44:51.159Z,15.33
2023-05-14T08:47:22.832Z,15.48
2023-05-14T08:49:58.813Z,15.51
2023-05-14T08:52:27.272Z,15.61
2023-05-14T08:54:57.224Z,15.73
2023-05-14T08:57:26.910Z,15.81
2023-05-14T08:59:56.082Z,15.92
2023-05-14T09:02:29.460Z,15.90
2023-05-14T09:05:00.520Z,15.84
2023-05-14T09:07:28.990Z,15.79
2023-05-14T09:09:57.362Z,15.78
2023-05-14T09:12:25.548Z,15.81
2023-05-14T09:14:53.763Z,15.85
2023-05-14T09:17:22.340Z,15.88
2023-05-14T09:19:53.182Z,15.92
2023-05-14T09:22:23.366Z,15.89
2023-05-14T09:25:05.213Z,15.86
2023-05-14T09:27:34.673Z,15.83
2023-05-14T09:30:07.750Z,15.83
2023-05-14T09:32:40.521Z,15.96
2023-05-14T09:35:17.928Z,15.99
2023-05-14T09:37:49.065Z,16.00
2023-05-14T09:40:18.814Z,15.94
2023-05-14T09:42:48.305Z,15.91
2023-05-14T09:45:17.366Z,15.85
2023-05-14T09:47:46.102Z,15.93
2023-05-14T09:50:14.884Z,16.00
2023-05-14T09:52:43.352Z,16.09
2023-05-14T09:55:13.084Z,16.22
2023-05-14T09:57:41.208Z,16.33
2023-05-14T10:00:10.708Z,16.42
2023-05-14T10:02:41.581Z,16.56
2023-05-14T10:05:10.502Z,16.67
2023-05-14T10:07:42.942Z,16.75
2023-05-14T10:10:20.101Z,16.82
2023-05-14T10:12:54.253Z,16.90
2023-05-14T10:15:28.375Z,16.88
2023-05-14T10:18:00.362Z,16.92
2023-05-14T10:20:30.061Z,16.85
2023-05-14T10:23:00.234Z,16.82
2023-05-14T10:25:30.333Z,16.68
2023-05-14T10:27:59.202Z,16.52
2023-05-14T10:30:27.518Z,16.39
2023-05-14T10:33:10.348Z,16.25
2023-05-14T10:36:02.040Z,16.18
2023-05-14T10:38:31.689Z,16.12
2023-05-14T10:41:06.220Z,16.02
2023-05-14T10:43:38.966Z,16.01
2023-05-14T10:46:08.508Z,15.99
2023-05-14T10:48:38.803Z,16.01
2023-05-14T10:51:10.039Z,16.05
2023-05-14T10:53:39.936Z,16.06
2023-05-14T10:56:11.574Z,16.14
2023-05-14T10:58:41.549Z,16.21
2023-05-14T11:01:12.188Z,16.31
2023-05-14T11:03:43.281Z,16.28
2023-05-14T11:06:13.220Z,16.27
2023-05-14T11:08:42.007Z,16.26
2023-05-14T11:11:12.168Z,16.34
2023-05-14T11:13:42.369Z,16.41
2023-05-14T11:16:22.414Z,16.35
2023-05-14T11:18:56.007Z,16.25
2023-05-14T11:21:24.407Z,16.25
2023-05-14T11:23:52.602Z,16.28
2023-05-14T11:26:22.912Z,16.27
2023-05-14T11:28:51.339Z,16.33
2023-05-14T11:31:19.559Z,16.48
2023-05-14T11:33:47.893Z,16.54
2023-05-14T11:36:16.031Z,16.54
2023-05-14T11:38:50.759Z,16.52
2023-05-14T11:41:21.057Z,16.35
2023-05-14T11:43:50.851Z,16.17
2023-05-14T11:46:20.020Z,15.92
2023-05-14T11:48:48.704Z,15.66
2023-05-14T11:51:16.916Z,15.43
2023-05-14T11:53:47.359Z,15.32
2023-05-14T11:56:16.035Z,15.28
2023-05-14T11:58:51.151Z,15.22
2023-05-14T12:01:19.672Z,15.21
2023-05-14T12:03:48.028Z,15.25
2023-05-14T12:06:16.219Z,15.26
2023-05-14T12:08:44.410Z,15.32
2023-05-14T12:11:12.549Z,15.39
2023-05-14T12:13:41.178Z,15.44
2023-05-14T12:16:11.064Z,15.45
2023-05-14T12:18:39.568Z,15.45
2023-05-14T12:21:09.495Z,15.31
2023-05-14T12:23:40.220Z,15.29
2023-05-14T12:26:09.544Z,15.37
2023-05-14T12:28:43.341Z,15.46
2023-05-14T12:31:13.412Z,15.53
2023-05-14T12:33:41.610Z,15.62
2023-05-14T12:36:21.233Z,15.68
2023-05-14T12:38:51.856Z,15.73
2023-05-14T12:41:19.921Z,15.79
2023-05-14T12:43:50.255Z,15.82
2023-05-14T12:46:20.193Z,15.80
2023-05-14T12:48:49.032Z,15.68
2023-05-14T12:51:17.781Z,15.45
2023-05-14T12:53:45.908Z,15.25
2023-05-14T12:56:14.427Z,15.10
2023-05-14T12:58:43.019Z,14.90
2023-05-14T13:01:11.308Z,14.79
2023-05-14T13:03:41.160Z,14.84
2023-05-14T13:06:09.607Z,14.85
2023-05-14T13:08:37.762Z,14.90
2023-05-14T13:11:06.042Z,14.98
2023-05-14T13:13:34.196Z,15.16
2023-05-14T13:16:02.524Z,15.29
2023-05-14T13:18:30.752Z,15.38
2023-05-14T13:21:00.561Z,15.35
2023-05-14T13:23:28.853Z,15.24
2023-05-14T13:25:58.513Z,15.20
2023-05-14T13:28:26.781Z,15.22
2023-05-14T13:31:07.437Z,15.19
2023-05-14T13:33:39.939Z,15.17
2023-05-14T13:36:11.911Z,15.21
2023-05-14T13:38:40.607Z,15.22
2023-05-14T13:41:09.503Z,15.24
2023-05-14T13:43:37.649Z,15.28
2023-05-14T13:46:07.176Z,15.28
2023-05-14T13:48:36.466Z,15.28
2023-05-14T13:51:05.027Z,15.26
2023-05-14T13:53:34.665Z,15.19
2023-05-14T13:56:02.877Z,15.24
2023-05-14T13:58:31.382Z,15.33
2023-05-14T14:00:59.455Z,15.47
2023-05-14T14:03:27.884Z,15.65
2023-05-14T14:05:56.080Z,15.80
2023-05-14T14:08:24.639Z,15.94
2023-05-14T14:10:55.664Z,16.01
2023-05-14T14:13:24.595Z,16.03
2023-05-14T14:15:53.057Z,16.14
2023-05-14T14:18:21.677Z,16.24
2023-05-14T14:20:49.900Z,16.41
2023-05-14T14:23:18.035Z,16.54
2023-05-14T14:25:46.599Z,16.68
2023-05-14T14:28:16.232Z,16.80
2023-05-14T14:30:44.984Z,16.82
2023-05-14T14:33:13.224Z,16.83
2023-05-14T14:35:41.432Z,16.93
2023-05-14T14:38:09.605Z,16.98
2023-05-14T14:40:37.793Z,17.00
2023-05-14T14:43:06.028Z,17.01
2023-05-14T14:45:35.744Z,17.03
2023-05-14T14:48:27.210Z,17.23
2023-05-14T14:50:55.932Z,17.33
2023-05-14T14:53:25.113Z,17.48
2023-05-14T14:55:53.720Z,17.53
2023-05-14T14:58:22.338Z,17.70
2023-05-14T15:00:54.226Z,17.84
2023-05-14T15:03:23.073Z,17.79
2023-05-14T15:05:53.453Z,17.80
2023-05-14T15:08:25.677Z,17.95
2023-05-14T15:10:53.885Z,17.90
2023-05-14T15:13:22.057Z,17.79
2023-05-14T15:15:52.281Z,17.65
2023-05-14T15:18:20.681Z,17.37
2023-05-14T15:20:49.620Z,17.10
2023-05-14T15:23:18.170Z,16.92
2023-05-14T15:25:46.419Z,16.80
2023-05-14T15:28:14.640Z,16.66
2023-05-14T15:30:42.913Z,16.64
2023-05-14T15:33:12.513Z,16.60
2023-05-14T15:35:40.671Z,16.55
2023-05-14T15:38:09.160Z,16.48
2023-05-14T15:40:37.407Z,16.41
2023-05-14T15:43:05.653Z,16.48
2023-05-14T15:45:33.960Z,16.50
2023-05-14T15:48:02.219Z,16.57
2023-05-14T15:50:31.897Z,16.64
2023-05-14T15:53:01.614Z,16.70
2023-05-14T15:55:29.837Z,16.74
2023-05-14T15:57:58.262Z,16.77
2023-05-14T16:00:26.880Z,16.82
2023-05-14T16:02:56.476Z,16.79
2023-05-14T16:05:24.710Z,16.83
2023-05-14T16:07:54.404Z,16.89
2023-05-14T16:10:22.856Z,16.96
2023-05-14T16:12:51.256Z,16.98
2023-05-14T16:15:19.524Z,17.05
2023-05-14T16:17:47.841Z,17.09
2023-05-14T16:20:16.793Z,17.12
2023-05-14T16:22:45.249Z,17.15
2023-05-14T16:25:14.800Z,17.22
2023-05-14T16:27:43.185Z,17.29
2023-05-14T16:30:12.103Z,17.28
2023-05-14T16:32:42.020Z,17.19
2023-05-14T16:35:11.041Z,17.08
2023-05-14T16:37:39.216Z,17.04
2023-05-14T16:40:11.591Z,16.98
2023-05-14T16:42:41.538Z,16.99
2023-05-14T16:45:10.970Z,16.97
2023-05-14T16:47:39.155Z,16.94
2023-05-14T16:50:08.943Z,16.95
2023-05-14T16:52:37.174Z,16.96
2023-05-14T16:55:05.963Z,16.92
2023-05-14T16:57:34.420Z,16.84
2023-05-14T17:00:06.237Z,16.82
2023-05-14T17:02:34.648Z,16.79
2023-05-14T17:05:04.148Z,16.78
2023-05-14T17:07:32.412Z,16.68
2023-05-14T17:10:01.027Z,16.60
2023-05-14T17:12:29.335Z,16.56
2023-05-14T17:14:57.504Z,16.48
2023-05-14T17:17:27.177Z,16.45
2023-05-14T17:19:55.241Z,16.36
2023-05-14T17:22:23.432Z,16.30
2023-05-14T17:24:51.713Z,16.27
2023-05-14T17:27:20.091Z,16.22
2023-05-14T17:29:51.094Z,16.16
2023-05-14T17:32:19.624Z,16.14
2023-05-14T17:34:49.106Z,16.13
2023-05-14T17:37:17.305Z,16.14
2023-05-14T17:39:45.478Z,16.07
2023-05-14T17:42:13.587Z,15.98
2023-05-14T17:44:42.283Z,15.96
2023-05-14T17:47:10.821Z,15.92
2023-05-14T17:49:39.123Z,15.81
2023-05-14T17:52:09.027Z,15.76
2023-05-14T17:54:37.300Z,15.78
2023-05-14T17:57:05.887Z,15.77
2023-05-14T17:59:34.060Z,15.70
2023-05-14T18:02:02.249Z,15.70
2023-05-14T18:04:30.540Z,15.63
2023-05-14T18:06:58.731Z,15.64
2023-05-14T18:09:28.721Z,15.66
2023-05-14T18:11:57.108Z,15.60
2023-05-14T18:14:25.476Z,15.55
2023-05-14T18:16:53.848Z,15.49
2023-05-14T18:19:22.042Z,15.44
2023-05-14T18:21:50.827Z,15.45
2023-05-14T18:24:19.159Z,15.46
2023-05-14T18:26:48.773Z,15.43
2023-05-14T18:29:17.002Z,15.41
2023-05-14T18:31:45.184Z,15.46
2023-05-14T18:34:13.344Z,15.47
2023-05-14T18:36:41.523Z,15.45
2023-05-14T18:39:09.817Z,15.43
2023-05-14T18:41:37.960Z,15.43
2023-05-14T18:44:07.695Z,15.41
2023-05-14T18:46:35.980Z,15.37
2023-05-14T18:49:04.535Z,15.38
2023-05-14T18:51:32.647Z,15.33
2023-05-14T18:54:00.914Z,15.25
2023-05-14T18:56:29.103Z,15.22
2023-05-14T18:58:57.240Z,15.18
2023-05-14T19:01:26.853Z,15.14
2023-05-14T19:03:55.404Z,15.11
2023-05-14T19:06:23.751Z,15.10
2023-05-14T19:08:52.211Z,15.05
2023-05-14T19:11:20.386Z,15.00
2023-05-14T19:13:49.729Z,14.92
2023-05-14T19:16:18.091Z,14.89
2023-05-14T19:18:47.835Z,14.83
2023-05-14T19:21:16.204Z,14.75
2023-05-14T19:23:44.377Z,14.68
2023-05-14T19:26:12.559Z,14.67
2023-05-14T19:28:40.867Z,14.63
2023-05-14T19:31:09.232Z,14.62
2023-05-14T19:33:37.521Z,14.61
2023-05-14T19:36:08.225Z,14.56
2023-05-14T19:38:36.462Z,14.50
2023-05-14T19:41:04.938Z,14.47
2023-05-14T19:43:33.032Z,14.42
2023-05-14T19:46:01.782Z,14.36
2023-05-14T19:48:31.359Z,14.37
2023-05-14T19:50:59.594Z,14.32
2023-05-14T19:53:30.704Z,14.28
2023-05-14T19:55:59.261Z,14.25
2023-05-14T19:58:27.814Z,14.21
2023-05-14T20:00:57.561Z,14.16
2023-05-14T20:03:26.899Z,14.12
2023-05-14T20:05:56.002Z,14.11
2023-05-14T20:08:25.098Z,14.09
2023-05-14T20:10:54.746Z,14.07
2023-05-14T20:13:25.015Z,14.05
2023-05-14T20:15:55.230Z,14.02
2023-05-14T20:18:23.573Z,13.99
2023-05-14T20:20:51.918Z,13.97
2023-05-14T20:23:20.832Z,13.94
2023-05-14T20:25:49.187Z,13.91
2023-05-14T20:28:18.903Z,13.88
2023-05-14T20:30:47.229Z,13.80
2023-05-14T20:33:15.660Z,13.72
2023-05-14T20:35:44.272Z,13.67
2023-05-14T20:38:12.942Z,13.62
2023-05-14T20:40:41.240Z,13.54
2023-05-14T20:43:09.459Z,13.47
2023-05-14T20:45:39.525Z,13.43
2023-05-14T20:48:10.321Z,13.38
2023-05-14T20:50:38.585Z,13.30
2023-05-14T20:53:06.923Z,13.28
2023-05-14T20:55:35.241Z,13.27
2023-05-14T20:58:03.555Z,13.21
2023-05-14T21:00:31.883Z,13.16
2023-05-14T21:03:01.761Z,13.12
2023-05-14T21:05:30.288Z,13.09
2023-05-14T21:07:58.602Z,13.05
2023-05-14T21:10:26.886Z,13.02
2023-05-14T21:12:55.170Z,12.98
2023-05-14T21:15:23.731Z,12.96
2023-05-14T21:17:52.136Z,12.96
2023-05-14T21:20:21.971Z,12.98
2023-05-14T21:22:50.265Z,12.99
2023-05-14T21:25:18.539Z,12.98
2023-05-14T21:27:46.712Z,12.96
2023-05-14T21:30:15.628Z,13.01
2023-05-14T21:32:43.816Z,12.99
2023-05-14T21:35:12.081Z,12.94
2023-05-14T21:37:41.913Z,12.89
2023-05-14T21:40:12.601Z,12.88
2023-05-14T21:42:40.925Z,12.85
2023-05-14T21:45:09.884Z,12.78
2023-05-14T21:47:38.568Z,12.74
2023-05-14T21:50:07.833Z,12.73
2023-05-14T21:52:36.058Z,12.68
2023-05-14T21:55:06.347Z,12.67
2023-05-14T21:57:34.852Z,12.58
2023-05-14T22:00:03.664Z,12.53
2023-05-14T22:02:32.212Z,12.50
2023-05-14T22:05:00.470Z,12.46
2023-05-14T22:07:28.771Z,12.47
2023-05-14T22:09:56.871Z,12.45
2023-05-14T22:12:26.887Z,12.43
2023-05-14T22:14:55.235Z,12.40
2023-05-14T22:17:23.538Z,12.37
2023-05-14T22:19:51.792Z,12.28
2023-05-14T22:22:20.011Z,12.24
2023-05-14T22:24:48.140Z,12.23
2023-05-14T22:27:16.223Z,12.23
2023-05-14T22:29:45.834Z,12.19
2023-05-14T22:32:14.094Z,12.18
2023-05-14T22:34:42.788Z,12.14
2023-05-14T22:37:11.046Z,12.14
2023-05-14T22:39:39.325Z,12.10
2023-05-14T22:42:07.655Z,12.07
2023-05-14T22:44:37.179Z,12.02
2023-05-14T22:47:07.420Z,12.01
2023-05-14T22:49:35.591Z,11.97
2023-05-14T22:52:03.828Z,11.94
2023-05-14T22:54:32.018Z,11.94
2023-05-14T22:57:00.343Z,11.91
2023-05-14T22:59:28.599Z,11.91
2023-05-14T23:01:56.906Z,11.91
2023-05-14T23:04:26.592Z,11.88
2023-05-14T23:06:54.930Z,11.81
2023-05-14T23:09:23.532Z,11.78
2023-05-14T23:11:51.975Z,11.74
2023-05-14T23:14:20.130Z,11.72
2023-05-14T23:16:48.366Z,11.70
2023-05-14T23:19:16.854Z,11.65
2023-05-14T23:21:46.746Z,11.60
2023-05-14T23:24:15.050Z,11.58
2023-05-14T23:26:43.458Z,11.59
2023-05-14T23:29:11.817Z,11.52
2023-05-14T23:31:41.169Z,11.45
2023-05-14T23:34:09.644Z,11.44
2023-05-14T23:36:39.831Z,11.38
2023-05-14T23:39:09.463Z,11.32
2023-05-14T23:41:37.726Z,11.26
2023-05-14T23:44:06.273Z,11.26
2023-05-14T23:46:35.475Z,11.30
2023-05-14T23:49:03.770Z,11.29
2023-05-14T23:51:31.984Z,11.30
2023-05-14T23:54:00.169Z,11.27
2023-05-14T23:56:30.122Z,11.18
2023-05-14T23:58:58.528Z,11.17
